M I D A S
Marine Information and Data Acquisition System
Tripno 1616 of the Zeeleeuw from 2008-11-26 07:43:14 to 2008-11-26 14:49:38
Back to CruiseResearch ActivitiesStationsMapUnderway DataData graphs

EquipmentUnitsComments
TimeDGPSUTC
LatitudeDGPSDM.mWGS84
LongitudeDGPSDM.mWGS84
SpeedMeteo Stationm/sRelative wind speed
DirectionMeteo StationdegRelative wind direction
TemperatureMeteo Stationdeg CelciusAir temperature
PressureMeteo StationPaAtmospheric pressure
HumidityMeteo Station%Relative humidity
Missing or incorrect values are displayed as -999
Metereological data collected by the RV Zeeleeuw from 2008-11-26 07:02:40 to 2008-11-26 14:51:00
Time Latitude Longitude Speed Direction Temperature Pressure Humidity
2008-11-26 07:03 51°13.626 2°56.049 -999 -999 -999 -999 -999
2008-11-26 07:04 51°13.625 2°56.049 -999 -999 -999 -999 -999
2008-11-26 07:05 51°13.625 2°56.049 -999 -999 -999 -999 -999
2008-11-26 07:06 51°13.625 2°56.049 -999 -999 -999 -999 -999
2008-11-26 07:07 51°13.625 2°56.049 -999 -999 -999 -999 -999
2008-11-26 07:08 51°13.624 2°56.049 -999 -999 -999 -999 -999
2008-11-26 07:09 51°13.623 2°56.049 -999 -999 -999 -999 -999
2008-11-26 07:10 51°13.623 2°56.049 -999 -999 -999 -999 -999
2008-11-26 07:11 51°13.623 2°56.049 -999 -999 -999 -999 -999
2008-11-26 07:12 51°13.623 2°56.048 -999 -999 -999 -999 -999
2008-11-26 07:13 51°13.623 2°56.048 -999 -999 -999 -999 -999
2008-11-26 07:14 51°13.624 2°56.048 2.8 38 7.4 102550 77
2008-11-26 07:15 51°13.625 2°56.048 2.5 21 7.4 102550 79
2008-11-26 07:16 51°13.626 2°56.048 2.3 37 7.4 102560 79
2008-11-26 07:17 51°13.626 2°56.048 2.3 25 7.4 102560 81
2008-11-26 07:18 51°13.625 2°56.048 0.8 37 7.4 102560 80
2008-11-26 07:19 51°13.625 2°56.049 1.6 20 7.4 102560 80
2008-11-26 07:20 51°13.624 2°56.048 2.8 26 7.4 102560 81
2008-11-26 07:21 51°13.625 2°56.048 2.3 25 7.4 102560 80
2008-11-26 07:22 51°13.623 2°56.048 1.2 26 7.4 102560 81
2008-11-26 07:23 51°13.623 2°56.047 1.9 25 7.4 102550 81
2008-11-26 07:24 51°13.623 2°56.047 2.5 21 7.4 102550 81
2008-11-26 07:25 51°13.625 2°56.047 1.4 22 7.4 102550 82
2008-11-26 07:26 51°13.623 2°56.046 2.4 26 7.4 102550 81
2008-11-26 07:27 51°13.623 2°56.047 3.2 26 7.4 102550 82
2008-11-26 07:28 51°13.622 2°56.046 2.6 26 7.4 102550 82
2008-11-26 07:29 51°13.625 2°56.047 3.1 22 7.4 102550 81
2008-11-26 07:30 51°13.623 2°56.048 2.5 21 7.3 102550 82
2008-11-26 07:31 51°13.625 2°56.048 3.5 24 7.4 102550 82
2008-11-26 07:32 51°13.625 2°56.048 2.4 23 7.3 102560 81
2008-11-26 07:33 51°13.624 2°56.048 3.3 25 7.3 102560 82
2008-11-26 07:34 51°13.624 2°56.048 4.1 26 7.3 102550 82
2008-11-26 07:35 51°13.623 2°56.047 3.4 26 7.3 102560 83
2008-11-26 07:36 51°13.624 2°56.047 4.4 25 7.3 102560 82
2008-11-26 07:37 51°13.624 2°56.046 3 26 7.3 102560 82
2008-11-26 07:38 51°13.624 2°56.046 4.6 26 7.3 102560 82
2008-11-26 07:39 51°13.625 2°56.047 4.1 28 7.3 102560 83
2008-11-26 07:40 51°13.625 2°56.047 3.9 18 7.3 102570 82
2008-11-26 07:41 51°13.625 2°56.047 1.6 27 7.3 102570 82
2008-11-26 07:42 51°13.622 2°56.047 4.7 20 7.3 102570 83
2008-11-26 07:43 51°13.624 2°56.048 4.1 26 7.3 102570 82
2008-11-26 07:44 51°13.624 2°56.047 2.4 27 7.4 102570 84
2008-11-26 07:45 51°13.623 2°56.047 3.8 24 7.5 102570 84
2008-11-26 07:46 51°13.628 2°56.027 4.4 27 7.5 102570 84
2008-11-26 07:47 51°13.652 2°55.932 4.7 22 7.9 102570 86
2008-11-26 07:48 51°13.68 2°55.837 3 19 8.1 102570 82
2008-11-26 07:49 51°13.7 2°55.753 2.6 21 8 102570 83
2008-11-26 07:50 51°13.698 2°55.714 2.9 21 8 102570 83
2008-11-26 07:51 51°13.727 2°55.729 3.6 321 7.9 102570 82
2008-11-26 07:52 51°13.819 2°55.646 6 326 7.7 102560 83
2008-11-26 07:53 51°13.946 2°55.543 6.4 328 7.6 102560 83
2008-11-26 07:54 51°14.078 2°55.444 5 327 7.6 102560 85
2008-11-26 07:55 51°14.206 2°55.329 9.1 320 7.5 102560 85
2008-11-26 07:56 51°14.317 2°55.161 12.4 321 7.4 102550 85
2008-11-26 07:57 51°14.435 2°54.969 12 318 7.4 102540 86
2008-11-26 07:58 51°14.579 2°54.786 12.1 21 7.4 102550 87
2008-11-26 07:59 51°14.748 2°54.642 10 25 7.4 102540 87
2008-11-26 08:00 51°14.919 2°54.491 10.6 317 7.4 102540 87
2008-11-26 08:01 51°15.084 2°54.328 9.6 20 7.4 102520 86
2008-11-26 08:02 51°15.245 2°54.155 12 317 7.4 102530 87
2008-11-26 08:03 51°15.408 2°53.986 10.2 317 7.5 102530 86
2008-11-26 08:04 51°15.571 2°53.813 12.1 315 7.4 102530 86
2008-11-26 08:05 51°15.734 2°53.647 9.7 27 7.5 102530 87
2008-11-26 08:06 51°15.899 2°53.487 9.9 27 7.5 102530 87
2008-11-26 08:07 51°16.066 2°53.331 9.8 26 7.5 102540 87
2008-11-26 08:08 51°16.233 2°53.177 12.3 20 7.5 102540 86
2008-11-26 08:09 51°16.398 2°53.026 11.6 22 7.5 102550 85
2008-11-26 08:10 51°16.567 2°52.88 10.2 22 7.4 102540 85
2008-11-26 08:11 51°16.74 2°52.748 11.1 21 7.5 102550 87
2008-11-26 08:12 51°16.905 2°52.609 10.2 24 7.4 102540 86
2008-11-26 08:13 51°17.065 2°52.471 9.6 24 7.5 102560 87
2008-11-26 08:14 51°17.228 2°52.342 10.1 24 7.5 102550 87
2008-11-26 08:15 51°17.398 2°52.243 9 25 7.4 102550 85
2008-11-26 08:16 51°17.577 2°52.197 8.9 24 7.4 102550 86
2008-11-26 08:17 51°17.759 2°52.166 10.3 26 7.4 102540 86
2008-11-26 08:18 51°17.937 2°52.132 12.5 24 7.4 102540 84
2008-11-26 08:19 51°18.114 2°52.096 9.4 23 7.3 102550 83
2008-11-26 08:20 51°18.291 2°52.066 10.9 27 7.3 102550 84
2008-11-26 08:21 51°18.472 2°52.037 11.3 21 7.3 102540 82
2008-11-26 08:22 51°18.653 2°51.998 12.2 24 7.3 102540 82
2008-11-26 08:23 51°18.836 2°51.961 11.7 26 7.3 102540 82
2008-11-26 08:24 51°19.02 2°51.927 11.6 24 7.3 102550 82
2008-11-26 08:25 51°19.203 2°51.881 8.9 22 7.3 102550 81
2008-11-26 08:26 51°19.384 2°51.84 10.4 23 7.3 102550 81
2008-11-26 08:27 51°19.565 2°51.8 8.2 25 7.4 102550 81
2008-11-26 08:28 51°19.747 2°51.761 10.8 20 7.4 102550 82
2008-11-26 08:29 51°19.932 2°51.738 11.6 22 7.4 102540 82
2008-11-26 08:30 51°20.119 2°51.716 10.7 26 7.4 102550 81
2008-11-26 08:31 51°20.307 2°51.698 10.8 21 7.4 102560 83
2008-11-26 08:32 51°20.496 2°51.674 11.5 23 7.4 102560 82
2008-11-26 08:33 51°20.683 2°51.647 9.7 23 7.4 102560 83
2008-11-26 08:34 51°20.87 2°51.621 10.6 26 7.4 102550 84
2008-11-26 08:35 51°21.055 2°51.6 9.4 24 7.4 102560 83
2008-11-26 08:36 51°21.243 2°51.576 10 25 7.4 102550 83
2008-11-26 08:37 51°21.429 2°51.55 11.6 26 7.4 102550 84
2008-11-26 08:38 51°21.619 2°51.527 11 27 7.4 102540 83
2008-11-26 08:39 51°21.807 2°51.503 9.7 20 7.4 102550 83
2008-11-26 08:40 51°21.994 2°51.47 9.2 22 7.4 102560 84
2008-11-26 08:41 51°22.182 2°51.44 9.5 20 7.4 102550 83
2008-11-26 08:42 51°22.364 2°51.405 9.3 27 7.4 102560 84
2008-11-26 08:43 51°22.55 2°51.374 10.8 20 7.4 102540 84
2008-11-26 08:44 51°22.732 2°51.345 10.1 21 7.4 102550 84
2008-11-26 08:45 51°22.921 2°51.318 9 21 7.5 102540 83
2008-11-26 08:46 51°23.106 2°51.288 8.8 20 7.5 102560 85
2008-11-26 08:47 51°23.29 2°51.26 9.9 21 7.5 102540 85
2008-11-26 08:48 51°23.472 2°51.231 8.9 24 7.5 102540 85
2008-11-26 08:49 51°23.656 2°51.201 9.6 26 7.5 102550 84
2008-11-26 08:50 51°23.838 2°51.173 10.7 23 7.5 102560 84
2008-11-26 08:51 51°24.019 2°51.14 9 25 7.5 102570 84
2008-11-26 08:52 51°24.202 2°51.107 8.1 19 7.5 102550 85
2008-11-26 08:53 51°24.387 2°51.075 9.8 22 7.6 102550 85
2008-11-26 08:54 51°24.57 2°51.042 11.1 19 7.6 102530 85
2008-11-26 08:55 51°24.755 2°51.009 8 22 7.6 102530 86
2008-11-26 08:56 51°24.936 2°50.974 9.5 23 7.6 102540 86
2008-11-26 08:57 51°25.119 2°50.944 10 25 7.7 102530 88
2008-11-26 08:58 51°25.304 2°50.913 11.7 22 7.7 102550 88
2008-11-26 08:59 51°25.487 2°50.884 10.6 20 7.7 102530 88
2008-11-26 09:00 51°25.67 2°50.857 9.6 23 7.7 102520 87
2008-11-26 09:01 51°25.853 2°50.833 9.2 23 7.7 102520 88
2008-11-26 09:02 51°26.036 2°50.812 10.4 25 7.7 102520 87
2008-11-26 09:03 51°26.22 2°50.787 9.1 25 7.7 102530 89
2008-11-26 09:04 51°26.403 2°50.762 9.7 24 7.8 102530 89
2008-11-26 09:05 51°26.589 2°50.74 11.3 23 7.8 102530 88
2008-11-26 09:06 51°26.77 2°50.717 4.4 20 7.8 102530 89
2008-11-26 09:07 51°26.955 2°50.692 10 24 7.8 102530 89
2008-11-26 09:08 51°27.138 2°50.667 9.3 25 7.8 102520 89
2008-11-26 09:09 51°27.318 2°50.641 11.3 21 7.8 102530 89
2008-11-26 09:10 51°27.499 2°50.604 11 22 7.8 102520 90
2008-11-26 09:11 51°27.683 2°50.575 11 21 7.7 102520 91
2008-11-26 09:12 51°27.868 2°50.551 10.4 22 7.7 102530 90
2008-11-26 09:13 51°28.052 2°50.524 10.3 21 7.7 102520 89
2008-11-26 09:14 51°28.238 2°50.499 10.2 25 7.7 102530 91
2008-11-26 09:15 51°28.425 2°50.477 11 25 7.7 102520 91
2008-11-26 09:16 51°28.611 2°50.457 11.2 26 7.7 102520 89
2008-11-26 09:17 51°28.796 2°50.447 8.8 25 7.7 102520 90
2008-11-26 09:18 51°28.969 2°50.545 6.3 246 7.7 102520 91
2008-11-26 09:19 51°29.137 2°50.687 7.3 248 7.8 102540 91
2008-11-26 09:20 51°29.285 2°50.883 4.5 22 7.8 102550 91
2008-11-26 09:21 51°29.424 2°51.101 5.5 254 7.9 102540 91
2008-11-26 09:22 51°29.556 2°51.327 4.8 253 7.8 102540 90
2008-11-26 09:23 51°29.67 2°51.582 4.4 249 7.9 102540 90
2008-11-26 09:24 51°29.785 2°51.837 4.6 247 7.9 102530 91
2008-11-26 09:25 51°29.898 2°52.094 4 256 7.9 102530 91
2008-11-26 09:26 51°30.004 2°52.363 4.9 256 7.9 102530 91
2008-11-26 09:27 51°30.106 2°52.638 3.4 260 7.9 102540 90
2008-11-26 09:28 51°30.18 2°52.927 2.1 265 7.9 102550 91
2008-11-26 09:29 51°30.246 2°53.214 1.6 260 7.9 102540 90
2008-11-26 09:30 51°30.313 2°53.504 2.2 269 7.9 102560 90
2008-11-26 09:31 51°30.384 2°53.79 2.5 255 8 102550 91
2008-11-26 09:32 51°30.453 2°54.075 1.7 270 8 102560 91
2008-11-26 09:33 51°30.523 2°54.361 2.2 254 8 102550 91
2008-11-26 09:34 51°30.593 2°54.645 1.9 261 8 102560 91
2008-11-26 09:35 51°30.663 2°54.93 2.7 262 8.1 102540 91
2008-11-26 09:36 51°30.733 2°55.215 3.5 262 8.1 102550 90
2008-11-26 09:37 51°30.802 2°55.499 2 268 8 102540 91
2008-11-26 09:38 51°30.872 2°55.785 2 269 8 102550 90
2008-11-26 09:39 51°30.943 2°56.071 1.7 268 7.9 102550 90
2008-11-26 09:40 51°31.014 2°56.356 1.8 29 8 102540 90
2008-11-26 09:41 51°31.085 2°56.642 0.9 260 8 102550 91
2008-11-26 09:42 51°31.157 2°56.933 1.3 22 8 102550 90
2008-11-26 09:43 51°31.26 2°57.188 4.6 249 8.1 102550 91
2008-11-26 09:44 51°31.394 2°57.407 3.7 250 8.1 102550 90
2008-11-26 09:45 51°31.527 2°57.627 3.1 248 8.1 102560 90
2008-11-26 09:46 51°31.66 2°57.849 3.7 250 8 102550 91
2008-11-26 09:47 51°31.79 2°58.067 4.1 255 8 102550 91
2008-11-26 09:48 51°31.92 2°58.291 5.3 255 8.1 102550 91
2008-11-26 09:49 51°32.052 2°58.513 4.4 21 8 102550 91
2008-11-26 09:50 51°32.195 2°58.716 4.3 253 8 102550 91
2008-11-26 09:51 51°32.338 2°58.915 5.3 257 8 102560 90
2008-11-26 09:52 51°32.486 2°59.109 6.1 23 8 102550 91
2008-11-26 09:53 51°32.649 2°59.222 9.1 26 8 102530 91
2008-11-26 09:54 51°32.786 2°59.092 11.6 24 8 102520 90
2008-11-26 09:55 51°32.892 2°58.877 12.1 319 8.1 102530 92
2008-11-26 09:56 51°33.004 2°58.659 11 25 8.1 102540 90
2008-11-26 09:57 51°33.117 2°58.432 13.6 316 8.1 102510 91
2008-11-26 09:58 51°33.238 2°58.205 14 25 8.1 102500 90
2008-11-26 09:59 51°33.357 2°57.974 13.9 317 8.1 102510 91
2008-11-26 10:00 51°33.479 2°57.741 13.1 19 8.1 102500 91
2008-11-26 10:01 51°33.602 2°57.507 13.3 24 8.1 102520 92
2008-11-26 10:02 51°33.725 2°57.272 12.6 24 8.1 102500 90
2008-11-26 10:03 51°33.841 2°57.027 12.8 27 8.1 102510 91
2008-11-26 10:04 51°33.947 2°56.771 11.5 26 8.1 102500 91
2008-11-26 10:05 51°34.053 2°56.513 14.8 315 8.1 102520 91
2008-11-26 10:06 51°34.159 2°56.258 14.9 315 8 102500 92
2008-11-26 10:07 51°34.265 2°56 14 316 8 102510 91
2008-11-26 10:08 51°34.259 2°55.727 13.3 332 8 102510 92
2008-11-26 10:09 51°34.149 2°55.475 14.3 331 8 102520 92
2008-11-26 10:10 51°34.05 2°55.208 13.1 335 8 102520 93
2008-11-26 10:11 51°33.951 2°54.945 12.5 334 7.9 102530 92
2008-11-26 10:12 51°33.845 2°54.689 12.9 336 8 102530 93
2008-11-26 10:13 51°33.74 2°54.43 14.2 333 8 102520 93
2008-11-26 10:14 51°33.633 2°54.176 15.1 338 8.1 102540 94
2008-11-26 10:15 51°33.532 2°53.918 13.8 334 8 102530 93
2008-11-26 10:16 51°33.428 2°53.661 12.1 334 8 102530 92
2008-11-26 10:17 51°33.325 2°53.406 13.7 336 8.1 102520 92
2008-11-26 10:18 51°33.224 2°53.148 14.2 331 8 102510 93
2008-11-26 10:19 51°33.121 2°52.893 13.9 337 8.1 102520 93
2008-11-26 10:20 51°33.01 2°52.645 14 335 8 102520 92
2008-11-26 10:21 51°32.9 2°52.399 13.1 335 8.1 102530 93
2008-11-26 10:22 51°32.795 2°52.149 12.9 337 8 102520 93
2008-11-26 10:23 51°32.689 2°51.9 13.7 336 8 102510 93
2008-11-26 10:24 51°32.583 2°51.651 12.5 335 8 102520 93
2008-11-26 10:25 51°32.476 2°51.401 12.7 337 8 102520 92
2008-11-26 10:26 51°32.371 2°51.153 14.5 335 8 102520 92
2008-11-26 10:27 51°32.265 2°50.907 14.5 341 8 102520 92
2008-11-26 10:28 51°32.16 2°50.66 13.3 340 8 102500 92
2008-11-26 10:29 51°32.057 2°50.414 11.6 336 8 102500 93
2008-11-26 10:30 51°31.953 2°50.166 11.7 337 8.1 102510 93
2008-11-26 10:31 51°31.85 2°49.92 14 337 8 102500 93
2008-11-26 10:32 51°31.747 2°49.674 12 338 8 102490 93
2008-11-26 10:33 51°31.645 2°49.43 11.8 333 7.9 102500 93
2008-11-26 10:34 51°31.543 2°49.185 13.3 334 7.9 102520 94
2008-11-26 10:35 51°31.441 2°48.94 11 333 7.8 102510 93
2008-11-26 10:36 51°31.339 2°48.693 12.7 333 7.8 102510 94
2008-11-26 10:37 51°31.236 2°48.45 14.4 336 7.8 102510 94
2008-11-26 10:38 51°31.137 2°48.205 14.5 336 7.8 102520 94
2008-11-26 10:39 51°31.037 2°47.963 13.8 336 7.8 102510 94
2008-11-26 10:40 51°31 2°47.689 13.7 327 7.8 102510 93
2008-11-26 10:41 51°31.057 2°47.408 11.7 317 7.8 102500 94
2008-11-26 10:42 51°31.181 2°47.184 10 20 7.8 102540 95
2008-11-26 10:43 51°31.367 2°47.075 9.2 22 7.8 102500 94
2008-11-26 10:44 51°31.568 2°47.02 11.4 23 7.8 102500 94
2008-11-26 10:45 51°31.75 2°47.009 8.8 20 7.8 102520 95
2008-11-26 10:46 51°31.928 2°47.013 10.8 24 7.8 102500 94
2008-11-26 10:47 51°32.109 2°47.009 8.7 21 7.8 102520 94
2008-11-26 10:48 51°32.286 2°47.001 7.9 26 7.9 102520 95
2008-11-26 10:49 51°32.463 2°46.992 8.7 25 7.9 102510 95
2008-11-26 10:50 51°32.641 2°46.98 9.1 20 7.9 102510 95
2008-11-26 10:51 51°32.822 2°46.967 9 21 7.9 102510 95
2008-11-26 10:52 51°33.005 2°46.95 10.1 27 7.9 102490 95
2008-11-26 10:53 51°33.187 2°46.931 9.7 24 7.9 102510 95
2008-11-26 10:54 51°33.368 2°46.912 8.7 22 7.9 102510 95
2008-11-26 10:55 51°33.546 2°46.896 9.8 22 7.9 102500 95
2008-11-26 10:56 51°33.723 2°46.879 8.4 22 7.9 102480 95
2008-11-26 10:57 51°33.901 2°46.86 9.7 22 7.9 102490 95
2008-11-26 10:58 51°34.085 2°46.857 8.2 244 7.9 102500 94
2008-11-26 10:59 51°34.274 2°46.855 8.4 25 8 102500 94
2008-11-26 11:00 51°34.458 2°46.854 7.8 24 7.9 102500 95
2008-11-26 11:01 51°34.649 2°46.865 10.7 22 7.9 102480 95
2008-11-26 11:02 51°34.839 2°46.923 8.2 24 7.9 102490 94
2008-11-26 11:03 51°35.027 2°46.991 6.7 22 7.9 102500 95
2008-11-26 11:04 51°35.217 2°47.058 9.8 21 7.9 102490 94
2008-11-26 11:05 51°35.402 2°47.13 7.6 20 8 102490 96
2008-11-26 11:06 51°35.583 2°47.24 5.4 249 8 102480 96
2008-11-26 11:07 51°35.759 2°47.389 6 253 8 102500 96
2008-11-26 11:08 51°35.925 2°47.538 6.1 254 8 102480 94
2008-11-26 11:09 51°36.09 2°47.682 7.8 247 8 102480 95
2008-11-26 11:10 51°36.255 2°47.824 5.9 251 8 102480 96
2008-11-26 11:11 51°36.421 2°47.965 5.3 260 8 102480 95
2008-11-26 11:12 51°36.588 2°48.106 6.4 253 8 102490 95
2008-11-26 11:13 51°36.754 2°48.247 5.5 254 8 102480 95
2008-11-26 11:14 51°36.92 2°48.39 6.7 255 8 102470 97
2008-11-26 11:15 51°37.089 2°48.529 6.9 254 8 102470 96
2008-11-26 11:16 51°37.256 2°48.67 6.7 253 8.1 102490 97
2008-11-26 11:17 51°37.421 2°48.808 6.4 248 8 102460 96
2008-11-26 11:18 51°37.588 2°48.944 6.8 254 8 102480 96
2008-11-26 11:19 51°37.755 2°49.081 7 249 8 102470 96
2008-11-26 11:20 51°37.923 2°49.218 6.7 250 8 102470 95
2008-11-26 11:21 51°38.086 2°49.354 8.1 22 8 102470 96
2008-11-26 11:22 51°38.25 2°49.488 8.6 254 8.1 102460 96
2008-11-26 11:23 51°38.416 2°49.622 7.2 252 8 102470 95
2008-11-26 11:24 51°38.581 2°49.755 5.5 249 8 102460 95
2008-11-26 11:25 51°38.748 2°49.889 6.3 247 8 102460 96
2008-11-26 11:26 51°38.915 2°50.024 8.6 251 8 102450 96
2008-11-26 11:27 51°39.083 2°50.159 7.6 247 8 102460 96
2008-11-26 11:28 51°39.25 2°50.295 5.9 252 8.1 102460 96
2008-11-26 11:29 51°39.414 2°50.429 7.7 255 8.1 102440 96
2008-11-26 11:30 51°39.582 2°50.564 8.5 251 8.1 102460 97
2008-11-26 11:31 51°39.747 2°50.707 6.3 259 8.1 102450 97
2008-11-26 11:32 51°39.855 2°50.953 1.3 36 8.1 102460 97
2008-11-26 11:33 51°39.815 2°51.204 7.1 7 8.1 102460 96
2008-11-26 11:34 51°39.673 2°51.37 8.4 5 8.1 102460 98
2008-11-26 11:35 51°39.567 2°51.64 4.9 3 7.9 102460 96
2008-11-26 11:36 51°39.441 2°51.889 6.5 6 7.9 102440 97
2008-11-26 11:37 51°39.287 2°52.094 7.9 7 7.9 102440 97
2008-11-26 11:38 51°39.133 2°52.292 7.9 8 7.9 102440 97
2008-11-26 11:39 51°38.986 2°52.493 6.8 4 8 102450 97
2008-11-26 11:40 51°38.84 2°52.699 6.6 8 8 102440 99
2008-11-26 11:41 51°38.697 2°52.902 9.1 9 8 102440 97
2008-11-26 11:42 51°38.554 2°53.11 7.5 8 8 102430 99
2008-11-26 11:43 51°38.409 2°53.319 7.7 7 7.9 102440 97
2008-11-26 11:44 51°38.266 2°53.527 6 6 7.9 102440 97
2008-11-26 11:45 51°38.123 2°53.735 8 2 7.9 102440 99
2008-11-26 11:46 51°37.982 2°53.943 7.8 10 7.9 102430 98
2008-11-26 11:47 51°37.84 2°54.149 7 9 7.9 102430 99
2008-11-26 11:48 51°37.695 2°54.355 6.3 6 7.8 102430 97
2008-11-26 11:49 51°37.552 2°54.557 8.7 7 7.9 102430 98
2008-11-26 11:50 51°37.409 2°54.756 6 3 7.9 102440 98
2008-11-26 11:51 51°37.248 2°54.768 14.1 338 7.9 102420 99
2008-11-26 11:52 51°37.155 2°54.543 13.9 340 7.9 102430 98
2008-11-26 11:53 51°37.064 2°54.307 13.2 338 7.9 102430 99
2008-11-26 11:54 51°36.972 2°54.072 12 337 7.9 102440 98
2008-11-26 11:55 51°36.879 2°53.835 13.8 339 7.9 102440 99
2008-11-26 11:56 51°36.786 2°53.6 12.3 343 7.9 102430 99
2008-11-26 11:57 51°36.69 2°53.367 14.9 341 8 102430 98
2008-11-26 11:58 51°36.594 2°53.136 14.7 340 7.9 102430 99
2008-11-26 11:59 51°36.498 2°52.902 13.6 336 7.9 102430 98
2008-11-26 12:00 51°36.405 2°52.667 14.8 336 7.9 102430 98
2008-11-26 12:01 51°36.305 2°52.439 15.7 341 7.9 102420 99
2008-11-26 12:02 51°36.194 2°52.226 14 342 7.9 102440 99
2008-11-26 12:03 51°36.082 2°52.011 14.7 340 7.9 102430 99
2008-11-26 12:04 51°35.974 2°51.794 12.3 340 7.9 102430 98
2008-11-26 12:05 51°35.864 2°51.579 12 341 7.9 102440 98
2008-11-26 12:06 51°35.756 2°51.363 11.5 340 7.9 102430 98
2008-11-26 12:07 51°35.648 2°51.149 13.7 340 7.9 102430 99
2008-11-26 12:08 51°35.538 2°50.933 13.1 341 7.9 102420 99
2008-11-26 12:09 51°35.404 2°50.784 11.8 354 7.9 102440 99
2008-11-26 12:10 51°35.255 2°50.923 8.4 10 7.8 102440 98
2008-11-26 12:11 51°35.106 2°51.116 7 7 7.8 102450 99
2008-11-26 12:12 51°34.949 2°51.308 7.8 7 7.8 102440 99
2008-11-26 12:13 51°34.793 2°51.498 8.1 6 7.8 102430 98
2008-11-26 12:14 51°34.647 2°51.713 7.8 15 7.8 102440 99
2008-11-26 12:15 51°34.505 2°51.943 7 8 7.9 102440 99
2008-11-26 12:16 51°34.356 2°52.162 9.1 9 7.9 102440 100
2008-11-26 12:17 51°34.212 2°52.385 6.5 4 7.9 102440 100
2008-11-26 12:18 51°34.064 2°52.607 7.5 8 7.8 102440 100
2008-11-26 12:19 51°33.921 2°52.835 6.1 9 7.9 102440 99
2008-11-26 12:20 51°33.875 2°53.16 2.7 265 7.9 102460 99
2008-11-26 12:21 51°33.986 2°53.449 3.6 27 7.9 102460 100
2008-11-26 12:22 51°34.095 2°53.718 3.1 269 7.9 102440 100
2008-11-26 12:23 51°34.194 2°53.964 3.2 269 7.9 102460 98
2008-11-26 12:24 51°34.294 2°54.213 3.6 27 7.9 102450 99
2008-11-26 12:25 51°34.393 2°54.462 3.6 25 7.8 102450 99
2008-11-26 12:26 51°34.491 2°54.713 3.9 22 7.8 102440 99
2008-11-26 12:27 51°34.588 2°54.963 4.8 27 7.9 102450 99
2008-11-26 12:28 51°34.686 2°55.212 3.4 268 7.9 102440 99
2008-11-26 12:29 51°34.785 2°55.462 3.4 25 7.9 102430 99
2008-11-26 12:30 51°34.883 2°55.712 5.4 23 7.8 102440 98
2008-11-26 12:31 51°34.982 2°55.962 4.3 269 7.8 102430 100
2008-11-26 12:32 51°35.081 2°56.21 5 27 7.8 102420 99
2008-11-26 12:33 51°35.18 2°56.46 3.9 27 7.8 102430 100
2008-11-26 12:34 51°35.278 2°56.711 3.5 22 7.7 102430 99
2008-11-26 12:35 51°35.378 2°56.959 2.7 28 7.7 102430 100
2008-11-26 12:36 51°35.476 2°57.208 2.3 23 7.8 102440 100
2008-11-26 12:37 51°35.566 2°57.464 2.7 23 7.8 102430 100
2008-11-26 12:38 51°35.58 2°57.738 3.7 29 8 102420 99
2008-11-26 12:39 51°35.496 2°57.959 8.4 6 7.9 102410 100
2008-11-26 12:40 51°35.354 2°58.074 9.3 360 7.9 102410 100
2008-11-26 12:41 51°35.192 2°58.157 8 1 7.9 102400 100
2008-11-26 12:42 51°35.022 2°58.256 8.7 6 7.9 102400 100
2008-11-26 12:43 51°34.854 2°58.367 8.6 4 7.9 102410 100
2008-11-26 12:44 51°34.688 2°58.486 8.6 357 7.8 102410 100
2008-11-26 12:45 51°34.526 2°58.613 8.9 5 7.8 102400 100
2008-11-26 12:46 51°34.363 2°58.737 7.7 2 7.8 102390 100
2008-11-26 12:47 51°34.2 2°58.869 7.3 5 7.8 102420 100
2008-11-26 12:48 51°34.038 2°59 8 6 7.9 102410 99
2008-11-26 12:49 51°33.875 2°59.117 9.8 4 7.8 102400 100
2008-11-26 12:50 51°33.709 2°59.224 9.5 -999 7.9 102410 100
2008-11-26 12:51 51°33.543 2°59.335 9.5 1 7.9 102400 100
2008-11-26 12:52 51°33.379 2°59.439 9.2 4 7.8 102390 100
2008-11-26 12:53 51°33.213 2°59.541 9.2 358 7.8 102400 100
2008-11-26 12:54 51°33.047 2°59.647 11.5 2 7.8 102400 100
2008-11-26 12:55 51°32.872 2°59.7 11.3 356 7.9 102390 100
2008-11-26 12:56 51°32.698 2°59.739 12.1 358 7.8 102390 100
2008-11-26 12:57 51°32.529 2°59.715 13.4 349 7.8 102370 100
2008-11-26 12:58 51°32.364 2°59.672 13.4 353 7.8 102390 99
2008-11-26 12:59 51°32.2 2°59.634 10.9 349 7.8 102390 100
2008-11-26 13:00 51°32.037 2°59.593 11.5 349 7.8 102390 100
2008-11-26 13:01 51°31.875 2°59.542 12.7 351 7.8 102380 99
2008-11-26 13:02 51°31.713 2°59.493 12.1 347 7.8 102380 100
2008-11-26 13:03 51°31.551 2°59.446 13.1 349 7.8 102390 100
2008-11-26 13:04 51°31.388 2°59.398 13 350 7.8 102400 100
2008-11-26 13:05 51°31.223 2°59.353 10.7 351 7.7 102390 99
2008-11-26 13:06 51°31.057 2°59.306 13.3 350 7.8 102390 100
2008-11-26 13:07 51°30.892 2°59.257 13.4 351 7.7 102390 99
2008-11-26 13:08 51°30.726 2°59.208 11.1 348 7.7 102390 99
2008-11-26 13:09 51°30.56 2°59.162 13.6 350 7.7 102390 99
2008-11-26 13:10 51°30.396 2°59.111 11.6 351 7.7 102390 100
2008-11-26 13:11 51°30.231 2°59.06 11.1 350 7.7 102390 99
2008-11-26 13:12 51°30.066 2°59.014 12.9 352 7.7 102390 100
2008-11-26 13:13 51°29.903 2°58.967 10.7 355 7.7 102400 100
2008-11-26 13:14 51°29.74 2°58.914 10.8 354 7.7 102400 100
2008-11-26 13:15 51°29.58 2°58.848 12 353 7.7 102390 100
2008-11-26 13:16 51°29.42 2°58.781 11.7 352 7.7 102390 100
2008-11-26 13:17 51°29.257 2°58.714 12.5 351 7.7 102390 100
2008-11-26 13:18 51°29.094 2°58.646 11.2 352 7.7 102390 100
2008-11-26 13:19 51°28.931 2°58.581 11 352 7.7 102390 100
2008-11-26 13:20 51°28.767 2°58.515 10.8 349 7.7 102400 100
2008-11-26 13:21 51°28.605 2°58.446 12.2 345 7.7 102390 100
2008-11-26 13:22 51°28.443 2°58.375 12.4 349 7.7 102390 100
2008-11-26 13:23 51°28.28 2°58.312 11.7 346 7.6 102380 100
2008-11-26 13:24 51°28.117 2°58.247 12.5 346 7.6 102390 100
2008-11-26 13:25 51°27.955 2°58.179 13.1 347 7.6 102400 100
2008-11-26 13:26 51°27.792 2°58.105 11.4 352 7.6 102390 100
2008-11-26 13:27 51°27.63 2°58.032 12.2 347 7.6 102400 100
2008-11-26 13:28 51°27.468 2°57.96 11.4 350 7.6 102400 100
2008-11-26 13:29 51°27.305 2°57.885 10.2 348 7.6 102400 100
2008-11-26 13:30 51°27.145 2°57.807 11 350 7.6 102390 100
2008-11-26 13:31 51°26.984 2°57.728 11.5 350 7.6 102400 100
2008-11-26 13:32 51°26.822 2°57.649 12.2 348 7.6 102420 100
2008-11-26 13:33 51°26.661 2°57.572 12.2 350 7.6 102410 100
2008-11-26 13:34 51°26.501 2°57.499 11.6 345 7.6 102410 100
2008-11-26 13:35 51°26.342 2°57.429 10.5 346 7.6 102420 100
2008-11-26 13:36 51°26.184 2°57.355 9.7 349 7.5 102420 100
2008-11-26 13:37 51°26.027 2°57.286 11.4 348 7.5 102410 100
2008-11-26 13:38 51°25.868 2°57.213 12.6 347 7.6 102420 100
2008-11-26 13:39 51°25.712 2°57.125 12.8 344 7.6 102420 100
2008-11-26 13:40 51°25.559 2°57.023 11.3 347 7.6 102410 100
2008-11-26 13:41 51°25.406 2°56.912 12.5 343 7.6 102420 100
2008-11-26 13:42 51°25.253 2°56.798 12.5 341 7.5 102420 100
2008-11-26 13:43 51°25.097 2°56.69 13.4 347 7.5 102420 99
2008-11-26 13:44 51°24.944 2°56.577 10.6 344 7.6 102420 100
2008-11-26 13:45 51°24.788 2°56.469 11.5 344 7.5 102410 99
2008-11-26 13:46 51°24.635 2°56.361 12.6 342 7.6 102420 100
2008-11-26 13:47 51°24.482 2°56.245 10 343 7.6 102420 100
2008-11-26 13:48 51°24.336 2°56.126 12.2 344 7.6 102420 100
2008-11-26 13:49 51°24.192 2°56.003 9.9 344 7.6 102410 100
2008-11-26 13:50 51°24.048 2°55.878 13.1 339 7.6 102420 100
2008-11-26 13:51 51°23.905 2°55.752 10.1 340 7.5 102410 99
2008-11-26 13:52 51°23.761 2°55.627 12.2 339 7.6 102400 100
2008-11-26 13:53 51°23.615 2°55.505 9.6 340 7.6 102410 99
2008-11-26 13:54 51°23.467 2°55.386 12.6 339 7.6 102420 100
2008-11-26 13:55 51°23.315 2°55.272 10.1 343 7.6 102410 100
2008-11-26 13:56 51°23.155 2°55.175 11.8 341 7.5 102410 99
2008-11-26 13:57 51°22.994 2°55.076 11.4 344 7.6 102410 99
2008-11-26 13:58 51°22.833 2°54.978 12.1 346 7.6 102410 99
2008-11-26 13:59 51°22.673 2°54.873 10.7 342 7.6 102410 99
2008-11-26 14:00 51°22.511 2°54.766 10.8 343 7.6 102410 100
2008-11-26 14:01 51°22.346 2°54.659 11 343 7.6 102410 99
2008-11-26 14:02 51°22.18 2°54.554 12.8 342 7.6 102410 99
2008-11-26 14:03 51°22.013 2°54.451 13.1 343 7.6 102410 98
2008-11-26 14:04 51°21.845 2°54.35 12 341 7.6 102420 99
2008-11-26 14:05 51°21.675 2°54.249 11.2 343 7.6 102400 98
2008-11-26 14:06 51°21.506 2°54.145 10 340 7.6 102420 98
2008-11-26 14:07 51°21.336 2°54.043 12 344 7.6 102410 99
2008-11-26 14:08 51°21.168 2°53.936 10.8 342 7.6 102420 98
2008-11-26 14:09 51°20.999 2°53.84 11.5 343 7.6 102420 100
2008-11-26 14:10 51°20.831 2°53.748 11.6 340 7.6 102420 99
2008-11-26 14:11 51°20.664 2°53.659 11.5 345 7.6 102430 100
2008-11-26 14:12 51°20.499 2°53.565 11.8 343 7.6 102420 98
2008-11-26 14:13 51°20.333 2°53.467 10.5 345 7.6 102420 99
2008-11-26 14:14 51°20.167 2°53.375 10.5 344 7.6 102420 100
2008-11-26 14:15 51°20.001 2°53.282 10.4 341 7.6 102420 99
2008-11-26 14:16 51°19.832 2°53.185 11.3 344 7.6 102420 98
2008-11-26 14:17 51°19.66 2°53.09 11.3 343 7.6 102420 98
2008-11-26 14:18 51°19.491 2°52.989 9.8 344 7.6 102420 99
2008-11-26 14:19 51°19.316 2°52.904 11 344 7.6 102410 99
2008-11-26 14:20 51°19.139 2°52.827 12.1 344 7.6 102430 99
2008-11-26 14:21 51°18.962 2°52.756 12.3 345 7.6 102430 98
2008-11-26 14:22 51°18.789 2°52.681 10.7 342 7.6 102440 98
2008-11-26 14:23 51°18.615 2°52.6 10.1 339 7.6 102440 100
2008-11-26 14:24 51°18.441 2°52.522 11 341 7.6 102430 99
2008-11-26 14:25 51°18.265 2°52.459 9.6 345 7.6 102440 98
2008-11-26 14:26 51°18.087 2°52.401 11.3 342 7.5 102420 98
2008-11-26 14:27 51°17.906 2°52.374 13.1 342 7.5 102430 98
2008-11-26 14:28 51°17.725 2°52.356 12.6 341 7.3 102430 98
2008-11-26 14:29 51°17.543 2°52.337 10.4 339 7.3 102430 98
2008-11-26 14:30 51°17.361 2°52.326 12.4 340 7.2 102430 100
2008-11-26 14:31 51°17.177 2°52.328 11.4 345 7.2 102430 98
2008-11-26 14:32 51°16.999 2°52.398 11.1 347 7.1 102420 98
2008-11-26 14:33 51°16.83 2°52.507 11.2 347 7 102420 99
2008-11-26 14:34 51°16.674 2°52.662 11.7 352 7 102420 100
2008-11-26 14:35 51°16.525 2°52.825 9.8 351 6.9 102430 99
2008-11-26 14:36 51°16.385 2°52.983 10.7 350 6.9 102420 100
2008-11-26 14:37 51°16.241 2°53.136 10.9 352 6.9 102430 99
2008-11-26 14:38 51°16.095 2°53.284 10.9 353 6.9 102430 100
2008-11-26 14:39 51°15.948 2°53.432 10.7 352 6.9 102430 100
2008-11-26 14:40 51°15.801 2°53.579 9.8 349 6.8 102420 100
2008-11-26 14:41 51°15.65 2°53.715 11.2 350 6.8 102430 100
2008-11-26 14:42 51°15.501 2°53.852 11.1 350 6.8 102430 100
2008-11-26 14:43 51°15.352 2°53.997 11 348 6.8 102430 100
2008-11-26 14:44 51°15.204 2°54.148 10.1 348 6.8 102430 100
2008-11-26 14:45 51°15.045 2°54.309 9.6 347 6.7 102440 100
2008-11-26 14:46 51°14.876 2°54.471 10.4 344 6.7 102430 100
2008-11-26 14:47 51°14.706 2°54.64 9.2 345 6.7 102430 100
2008-11-26 14:48 51°14.541 2°54.812 9.5 348 6.7 102440 99
2008-11-26 14:49 51°14.396 2°55.026 9.9 355 6.6 102440 100
2008-11-26 14:50 51°14.262 2°55.258 7.1 349 6.6 102440 100